Time;durP1;ratioP1;P1;durP2;ratioP2;P2;SDS_P1;SDS_P2;PMS_P1;PMS_P2;Temp;Humidity;BMP_temperature;BMP_pressure;BME280_temperature;BME280_humidity;BME280_pressure;Samples;Min_cycle;Max_cycle;Signal;HPM_P1;HPM_P2
2023/07/23 00:02:06;;;;;;;9.07;8.00;;;;;;;;;;5079764;28;20476;-62
2023/07/23 00:04:33;;;;;;;9.93;7.90;;;;;;;;;;5080644;28;20476;-63
2023/07/23 00:07:02;;;;;;;10.30;8.20;;;;;;;;;;5079524;28;21307;-63
2023/07/23 00:09:28;;;;;;;11.37;8.23;;;;;;;;;;5080423;28;20502;-62
2023/07/23 00:11:54;;;;;;;12.93;7.97;;;;;;;;;;5080287;28;20516;-62
2023/07/23 00:14:21;;;;;;;10.37;7.47;;;;;;;;;;5080829;28;20480;-62
2023/07/23 00:16:47;;;;;;;12.60;9.37;;;;;;;;;;5082062;28;20507;-62
2023/07/23 00:19:19;;;;;;;9.23;8.10;;;;;;;;;;5084243;28;20513;-62
2023/07/23 00:21:45;;;;;;;10.93;8.20;;;;;;;;;;5084595;28;20440;-62
2023/07/23 00:24:13;;;;;;;9.93;7.90;;;;;;;;;;5084786;28;20454;-62
2023/07/23 00:26:39;;;;;;;9.90;8.20;;;;;;;;;;5084279;28;20452;-62
2023/07/23 00:29:06;;;;;;;9.03;8.00;;;;;;;;;;5084507;28;20491;-62
2023/07/23 00:31:32;;;;;;;12.40;8.27;;;;;;;;;;5084575;28;20471;-62
2023/07/23 00:33:58;;;;;;;9.00;7.97;;;;;;;;;;5083657;28;20518;-62
2023/07/23 00:36:25;;;;;;;9.20;8.20;;;;;;;;;;5084118;28;20475;-62
2023/07/23 00:38:51;;;;;;;10.87;8.47;;;;;;;;;;5084012;28;20499;-62
2023/07/23 00:41:19;;;;;;;11.13;9.03;;;;;;;;;;5084358;28;20475;-62
2023/07/23 00:43:45;;;;;;;9.70;7.93;;;;;;;;;;5084334;28;20472;-62
2023/07/23 00:46:12;;;;;;;11.33;9.50;;;;;;;;;;5084131;28;20847;-62
2023/07/23 00:48:38;;;;;;;9.53;8.57;;;;;;;;;;5083374;28;20451;-62
2023/07/23 00:51:04;;;;;;;9.47;8.40;;;;;;;;;;5084133;28;20480;-62
2023/07/23 00:53:31;;;;;;;11.73;8.40;;;;;;;;;;5084214;28;20539;-62
2023/07/23 00:55:59;;;;;;;11.10;8.57;;;;;;;;;;5084248;28;20479;-62
2023/07/23 00:58:27;;;;;;;9.57;8.57;;;;;;;;;;5083903;28;20451;-62
2023/07/23 01:00:53;;;;;;;8.70;7.77;;;;;;;;;;5083921;28;20443;-62
2023/07/23 01:03:20;;;;;;;10.27;8.10;;;;;;;;;;5083063;28;20482;-62
2023/07/23 01:05:48;;;;;;;10.33;7.53;;;;;;;;;;5083064;28;20462;-62
2023/07/23 01:08:14;;;;;;;9.07;8.17;;;;;;;;;;5083679;28;20486;-62
2023/07/23 01:10:41;;;;;;;16.20;7.70;;;;;;;;;;5084329;28;20503;-62
2023/07/23 01:13:08;;;;;;;8.43;7.50;;;;;;;;;;5083827;28;20443;-62
2023/07/23 01:15:35;;;;;;;10.37;8.47;;;;;;;;;;5084012;28;20439;-62
2023/07/23 01:18:03;;;;;;;9.13;8.27;;;;;;;;;;5082763;28;20452;-61
2023/07/23 01:20:30;;;;;;;10.03;7.60;;;;;;;;;;5084079;28;20452;-62
2023/07/23 01:22:57;;;;;;;10.60;8.30;;;;;;;;;;5083427;28;20456;-62
2023/07/23 01:25:24;;;;;;;9.03;7.47;;;;;;;;;;5083685;28;20539;-62
2023/07/23 01:27:51;;;;;;;9.80;7.93;;;;;;;;;;5081985;28;20452;-62
2023/07/23 01:30:17;;;;;;;9.13;7.73;;;;;;;;;;5083972;28;20563;-62
2023/07/23 01:32:43;;;;;;;9.57;8.50;;;;;;;;;;5082996;28;20527;-62
2023/07/23 01:35:13;;;;;;;9.50;7.33;;;;;;;;;;5083568;28;20585;-62
2023/07/23 01:37:40;;;;;;;9.40;8.37;;;;;;;;;;5082628;28;20480;-62
2023/07/23 01:40:08;;;;;;;9.07;8.17;;;;;;;;;;5083380;28;20478;-62
2023/07/23 01:42:35;;;;;;;12.13;8.53;;;;;;;;;;5073790;28;20480;-62
2023/07/23 01:45:02;;;;;;;9.40;8.40;;;;;;;;;;5083057;28;20452;-62
2023/07/23 01:47:28;;;;;;;7.80;6.93;;;;;;;;;;5082506;28;20464;-62
2023/07/23 01:49:55;;;;;;;9.60;7.80;;;;;;;;;;5082928;28;20883;-62
2023/07/23 01:52:21;;;;;;;9.00;7.97;;;;;;;;;;5083056;28;20456;-62
2023/07/23 01:54:48;;;;;;;10.50;7.73;;;;;;;;;;5083184;28;20447;-62
2023/07/23 01:57:15;;;;;;;7.90;7.10;;;;;;;;;;5082734;28;20468;-62
2023/07/23 01:59:42;;;;;;;7.53;6.83;;;;;;;;;;5082875;28;20451;-62
2023/07/23 02:02:10;;;;;;;10.73;7.67;;;;;;;;;;5082396;28;20472;-62
2023/07/23 02:04:36;;;;;;;12.60;7.47;;;;;;;;;;5082899;28;20452;-62
2023/07/23 02:07:03;;;;;;;10.60;7.60;;;;;;;;;;5081396;28;21003;-62
2023/07/23 02:09:29;;;;;;;7.87;7.00;;;;;;;;;;5082491;28;20487;-62
2023/07/23 02:11:56;;;;;;;8.13;7.23;;;;;;;;;;5082497;28;20511;-62
2023/07/23 02:14:23;;;;;;;13.33;7.97;;;;;;;;;;5082794;28;20520;-62
2023/07/23 02:16:50;;;;;;;9.37;7.27;;;;;;;;;;5082680;28;20483;-62
2023/07/23 02:19:16;;;;;;;8.60;7.20;;;;;;;;;;5081699;28;20459;-62
2023/07/23 02:21:42;;;;;;;11.70;7.20;;;;;;;;;;5082238;28;20528;-62
2023/07/23 02:24:09;;;;;;;7.63;6.60;;;;;;;;;;5082065;28;20519;-62
2023/07/23 02:26:35;;;;;;;8.67;6.87;;;;;;;;;;5082334;28;20543;-62
2023/07/23 02:29:02;;;;;;;10.40;6.87;;;;;;;;;;5081946;28;20443;-62
2023/07/23 02:31:30;;;;;;;7.27;6.20;;;;;;;;;;5082210;28;20540;-62
2023/07/23 02:33:56;;;;;;;9.30;6.03;;;;;;;;;;5081569;28;20543;-62
2023/07/23 02:36:23;;;;;;;10.50;7.73;;;;;;;;;;5081508;28;21007;-62
2023/07/23 02:38:49;;;;;;;9.53;5.83;;;;;;;;;;5082052;28;20452;-63
2023/07/23 02:41:15;;;;;;;8.90;6.53;;;;;;;;;;5081885;28;20558;-62
2023/07/23 02:43:42;;;;;;;10.00;5.50;;;;;;;;;;5081749;28;20471;-62
2023/07/23 02:46:08;;;;;;;10.80;6.10;;;;;;;;;;5081832;28;20480;-62
2023/07/23 02:48:37;;;;;;;8.50;5.70;;;;;;;;;;5081138;28;20452;-62
2023/07/23 02:51:03;;;;;;;6.90;5.90;;;;;;;;;;5078444;28;20544;-62
2023/07/23 02:53:30;;;;;;;6.03;5.43;;;;;;;;;;5081609;28;21010;-62
2023/07/23 02:55:56;;;;;;;6.83;6.03;;;;;;;;;;5081833;28;20975;-62
2023/07/23 02:58:22;;;;;;;12.30;6.67;;;;;;;;;;5081621;28;20504;-62
2023/07/23 03:00:49;;;;;;;6.43;5.13;;;;;;;;;;5082081;28;20451;-62
2023/07/23 03:03:16;;;;;;;7.60;5.80;;;;;;;;;;5080674;28;20485;-62
2023/07/23 03:05:43;;;;;;;7.60;5.43;;;;;;;;;;5080787;28;20468;-61
2023/07/23 03:08:10;;;;;;;8.30;5.90;;;;;;;;;;5081096;28;20444;-62
2023/07/23 03:10:36;;;;;;;9.17;5.90;;;;;;;;;;5081633;28;20514;-61
2023/07/23 03:13:03;;;;;;;9.20;5.43;;;;;;;;;;5081196;28;20544;-62
2023/07/23 03:15:30;;;;;;;7.37;6.03;;;;;;;;;;5081307;28;20452;-62
2023/07/23 03:17:56;;;;;;;7.53;6.10;;;;;;;;;;5080421;28;20481;-62
2023/07/23 03:20:22;;;;;;;7.70;6.00;;;;;;;;;;5081211;28;20809;-62
2023/07/23 03:22:50;;;;;;;6.67;5.20;;;;;;;;;;5081523;28;20474;-62
2023/07/23 03:25:17;;;;;;;7.87;5.40;;;;;;;;;;5081261;28;20892;-62
2023/07/23 03:27:44;;;;;;;11.90;6.83;;;;;;;;;;5081047;28;20889;-62
2023/07/23 03:30:11;;;;;;;8.30;5.27;;;;;;;;;;5081486;28;20531;-62
2023/07/23 03:32:38;;;;;;;10.27;5.30;;;;;;;;;;5080430;28;20490;-62
2023/07/23 03:35:04;;;;;;;9.70;5.67;;;;;;;;;;5081193;28;20465;-62
2023/07/23 03:37:31;;;;;;;8.60;5.77;;;;;;;;;;5080405;28;20484;-62
2023/07/23 03:39:58;;;;;;;6.17;5.40;;;;;;;;;;5081028;28;20992;-62
2023/07/23 03:42:25;;;;;;;7.70;5.30;;;;;;;;;;5081172;28;20474;-62
2023/07/23 03:44:51;;;;;;;9.47;6.47;;;;;;;;;;5081401;28;20475;-61
2023/07/23 03:47:19;;;;;;;6.80;6.10;;;;;;;;;;5080404;28;20955;-62
2023/07/23 03:49:46;;;;;;;10.30;6.30;;;;;;;;;;5081094;28;20781;-62
2023/07/23 03:52:12;;;;;;;7.57;6.77;;;;;;;;;;5080404;28;20483;-62
2023/07/23 03:54:39;;;;;;;10.33;5.60;;;;;;;;;;5081046;28;20479;-62
2023/07/23 03:57:07;;;;;;;9.53;5.70;;;;;;;;;;5080630;28;20463;-62
2023/07/23 03:59:35;;;;;;;8.37;6.00;;;;;;;;;;5074206;28;20472;-62
2023/07/23 04:02:02;;;;;;;9.90;6.57;;;;;;;;;;5080846;28;20523;-62
2023/07/23 04:04:28;;;;;;;7.73;5.57;;;;;;;;;;5080126;28;20605;-62
2023/07/23 04:06:54;;;;;;;7.73;5.13;;;;;;;;;;5079905;28;20734;-62
2023/07/23 04:09:21;;;;;;;10.00;5.80;;;;;;;;;;5080369;28;20512;-62
2023/07/23 04:11:47;;;;;;;5.77;5.23;;;;;;;;;;5080930;28;20561;-62
2023/07/23 04:14:15;;;;;;;6.60;5.80;;;;;;;;;;5080693;28;20997;-62
2023/07/23 04:16:41;;;;;;;8.37;6.20;;;;;;;;;;5081005;28;20475;-62
2023/07/23 04:19:08;;;;;;;10.63;6.37;;;;;;;;;;5079852;28;20490;-62
2023/07/23 04:21:34;;;;;;;7.90;5.50;;;;;;;;;;5080684;28;20467;-62
2023/07/23 04:24:01;;;;;;;10.20;5.70;;;;;;;;;;5080597;28;20444;-62
2023/07/23 04:26:28;;;;;;;7.70;5.80;;;;;;;;;;5080419;28;20447;-62
2023/07/23 04:28:54;;;;;;;7.93;6.27;;;;;;;;;;5080514;28;20487;-62
2023/07/23 04:31:22;;;;;;;7.47;5.50;;;;;;;;;;5080605;28;20503;-62
2023/07/23 04:33:49;;;;;;;9.87;6.10;;;;;;;;;;5079813;28;20468;-62
2023/07/23 04:36:15;;;;;;;9.97;6.17;;;;;;;;;;5080007;28;21017;-62
2023/07/23 04:38:42;;;;;;;7.83;5.50;;;;;;;;;;5079984;28;20467;-62
2023/07/23 04:41:09;;;;;;;8.47;5.97;;;;;;;;;;5080729;28;20498;-62
2023/07/23 04:43:36;;;;;;;10.47;5.93;;;;;;;;;;5072228;28;20481;-62
2023/07/23 04:46:03;;;;;;;9.17;6.63;;;;;;;;;;5080325;28;21005;-62
2023/07/23 04:48:30;;;;;;;7.63;6.37;;;;;;;;;;5079455;28;20460;-62
2023/07/23 04:50:57;;;;;;;6.27;5.67;;;;;;;;;;5080785;28;20443;-62
2023/07/23 04:53:24;;;;;;;7.50;5.50;;;;;;;;;;5080460;28;20534;-62
2023/07/23 04:55:51;;;;;;;7.20;6.40;;;;;;;;;;5080953;28;20448;-62
2023/07/23 04:58:17;;;;;;;6.43;5.27;;;;;;;;;;5080150;28;20467;-62
2023/07/23 05:00:43;;;;;;;9.10;7.00;;;;;;;;;;5080564;28;20531;-62
2023/07/23 05:03:11;;;;;;;6.30;5.43;;;;;;;;;;5081382;28;20490;-61
2023/07/23 05:05:39;;;;;;;6.50;5.30;;;;;;;;;;5082963;28;20444;-62
2023/07/23 05:08:05;;;;;;;9.93;7.10;;;;;;;;;;5083262;28;20507;-62
2023/07/23 05:10:32;;;;;;;8.30;5.70;;;;;;;;;;5083711;28;20468;-62
2023/07/23 05:12:58;;;;;;;9.30;5.50;;;;;;;;;;5083581;28;20490;-62
2023/07/23 05:15:24;;;;;;;9.23;5.40;;;;;;;;;;5083567;28;20444;-62
2023/07/23 05:17:51;;;;;;;7.87;5.53;;;;;;;;;;5082838;28;20463;-62
2023/07/23 05:20:17;;;;;;;9.17;5.63;;;;;;;;;;5083407;28;20535;-62
2023/07/23 05:22:45;;;;;;;6.57;5.30;;;;;;;;;;5083431;28;20511;-62
2023/07/23 05:25:11;;;;;;;6.70;6.00;;;;;;;;;;5083330;28;20471;-62
2023/07/23 05:27:38;;;;;;;5.73;5.17;;;;;;;;;;5083481;28;20492;-62
2023/07/23 05:30:05;;;;;;;6.23;5.30;;;;;;;;;;5083287;28;20507;-62
2023/07/23 05:32:31;;;;;;;7.00;6.03;;;;;;;;;;5082675;28;20479;-62
2023/07/23 05:34:58;;;;;;;5.77;4.80;;;;;;;;;;5083210;28;20486;-62
2023/07/23 05:37:24;;;;;;;7.13;5.23;;;;;;;;;;5082572;28;20519;-62
2023/07/23 05:39:53;;;;;;;6.60;5.90;;;;;;;;;;5083230;28;20501;-62
2023/07/23 05:42:19;;;;;;;11.90;5.70;;;;;;;;;;5083477;28;20455;-62
2023/07/23 05:44:46;;;;;;;6.20;4.90;;;;;;;;;;5083085;28;20483;-62
2023/07/23 05:47:12;;;;;;;6.47;5.63;;;;;;;;;;5082654;28;20480;-62
2023/07/23 05:49:39;;;;;;;7.67;5.50;;;;;;;;;;5082340;28;20452;-62
2023/07/23 05:52:05;;;;;;;8.30;4.83;;;;;;;;;;5083050;28;20507;-62
2023/07/23 05:54:32;;;;;;;6.30;5.50;;;;;;;;;;5083060;28;20468;-62
2023/07/23 05:57:00;;;;;;;8.00;5.43;;;;;;;;;;5083024;28;20832;-62
2023/07/23 05:59:26;;;;;;;6.80;5.20;;;;;;;;;;5082437;28;20871;-62
2023/07/23 06:01:53;;;;;;;7.87;5.10;;;;;;;;;;5082941;28;20477;-62
2023/07/23 06:04:20;;;;;;;6.70;5.23;;;;;;;;;;5081832;28;20486;-61
2023/07/23 06:06:46;;;;;;;7.40;5.70;;;;;;;;;;5081833;28;20448;-62
2023/07/23 06:09:13;;;;;;;8.17;5.70;;;;;;;;;;5082376;28;20456;-62
2023/07/23 06:11:39;;;;;;;6.70;5.47;;;;;;;;;;5082846;28;20483;-62
2023/07/23 06:14:08;;;;;;;5.40;4.90;;;;;;;;;;5082287;28;20967;-62
2023/07/23 06:16:34;;;;;;;7.17;5.13;;;;;;;;;;5082554;28;20452;-62
2023/07/23 06:19:00;;;;;;;5.80;4.60;;;;;;;;;;5081716;28;20486;-62
2023/07/23 06:21:27;;;;;;;8.67;4.90;;;;;;;;;;5082816;28;20531;-62
2023/07/23 06:23:53;;;;;;;5.97;5.20;;;;;;;;;;5081936;28;20480;-62
2023/07/23 06:26:21;;;;;;;5.40;4.60;;;;;;;;;;5082249;28;20478;-62
2023/07/23 06:28:47;;;;;;;7.00;5.50;;;;;;;;;;5081986;28;20530;-62
2023/07/23 06:31:15;;;;;;;7.03;5.00;;;;;;;;;;5082246;28;20503;-62
2023/07/23 06:33:42;;;;;;;5.63;5.03;;;;;;;;;;5081514;28;20540;-62
2023/07/23 06:36:08;;;;;;;9.77;5.20;;;;;;;;;;5082193;28;20459;-62
2023/07/23 06:38:34;;;;;;;7.10;4.97;;;;;;;;;;5081700;28;20463;-62
2023/07/23 06:41:01;;;;;;;8.17;4.90;;;;;;;;;;5081912;28;20828;-62
2023/07/23 06:43:27;;;;;;;6.77;5.20;;;;;;;;;;5081705;28;20778;-62
2023/07/23 06:45:54;;;;;;;6.73;5.00;;;;;;;;;;5082103;28;20456;-62
2023/07/23 06:48:23;;;;;;;6.77;4.87;;;;;;;;;;5080960;28;20496;-62
2023/07/23 06:50:49;;;;;;;9.27;4.60;;;;;;;;;;5081856;28;20455;-62
2023/07/23 06:53:16;;;;;;;8.27;5.20;;;;;;;;;;5081920;28;20552;-62
2023/07/23 06:55:57;;;;;;;6.63;4.73;;;;;;;;;;5081877;28;20475;-62
2023/07/23 06:58:23;;;;;;;9.00;5.00;;;;;;;;;;5079354;28;20558;-62
2023/07/23 07:00:50;;;;;;;5.87;4.63;;;;;;;;;;5081698;28;21023;-62
2023/07/23 07:03:16;;;;;;;8.47;5.00;;;;;;;;;;5080823;28;20448;-62
2023/07/23 07:05:44;;;;;;;8.73;4.73;;;;;;;;;;5080483;28;20452;-63
2023/07/23 07:08:10;;;;;;;7.70;5.23;;;;;;;;;;5081160;28;20534;-62
2023/07/23 07:10:36;;;;;;;6.50;5.00;;;;;;;;;;5081808;28;20551;-62
2023/07/23 07:13:03;;;;;;;7.03;4.67;;;;;;;;;;5081354;28;20507;-62
2023/07/23 07:15:29;;;;;;;6.83;5.30;;;;;;;;;;5081634;28;20475;-62
2023/07/23 07:17:56;;;;;;;7.00;5.27;;;;;;;;;;5080057;28;20553;-62
2023/07/23 07:20:21;;;;;;;6.53;4.77;;;;;;;;;;5080018;28;20482;-62
2023/07/23 07:22:49;;;;;;;7.50;5.30;;;;;;;;;;5079112;28;20819;-62
2023/07/23 07:25:15;;;;;;;7.93;4.30;;;;;;;;;;5080423;28;20687;-62
2023/07/23 07:27:42;;;;;;;7.03;4.70;;;;;;;;;;5071926;28;20479;-62
2023/07/23 07:30:08;;;;;;;5.10;4.40;;;;;;;;;;5079731;28;20483;-62
2023/07/23 07:32:35;;;;;;;5.50;4.53;;;;;;;;;;5076838;28;20972;-62
2023/07/23 07:35:02;;;;;;;6.60;4.60;;;;;;;;;;5080331;28;21047;-62
2023/07/23 07:37:28;;;;;;;7.57;4.77;;;;;;;;;;5078513;28;21028;-62
2023/07/23 07:39:56;;;;;;;5.93;4.37;;;;;;;;;;5080411;28;20482;-62
2023/07/23 07:42:22;;;;;;;8.10;5.80;;;;;;;;;;5080512;28;20475;-62
2023/07/23 07:44:49;;;;;;;6.60;4.30;;;;;;;;;;5079336;28;20658;-62
2023/07/23 07:47:15;;;;;;;12.60;4.73;;;;;;;;;;5080271;28;20510;-62
2023/07/23 07:49:42;;;;;;;6.70;4.63;;;;;;;;;;5079053;28;20742;-62
2023/07/23 07:52:08;;;;;;;7.60;4.60;;;;;;;;;;5073805;28;20480;-63
2023/07/23 07:54:36;;;;;;;4.70;3.90;;;;;;;;;;5076279;28;20471;-62
2023/07/23 07:57:04;;;;;;;9.00;4.37;;;;;;;;;;5071768;28;20557;-62
2023/07/23 07:59:31;;;;;;;4.80;3.80;;;;;;;;;;5079632;28;20907;-62
2023/07/23 08:01:57;;;;;;;5.30;3.60;;;;;;;;;;5079928;28;20492;-63
2023/07/23 08:04:24;;;;;;;7.63;3.57;;;;;;;;;;5079214;28;20475;-62
2023/07/23 08:06:51;;;;;;;4.80;4.10;;;;;;;;;;5078051;28;20956;-63
2023/07/23 08:09:18;;;;;;;6.37;3.93;;;;;;;;;;5080071;28;20472;-62
2023/07/23 08:11:45;;;;;;;4.30;3.90;;;;;;;;;;5080026;28;20514;-62
2023/07/23 08:14:14;;;;;;;4.87;3.80;;;;;;;;;;5079293;28;20479;-62
2023/07/23 08:16:40;;;;;;;7.60;4.13;;;;;;;;;;5069852;28;20749;-62
2023/07/23 08:19:08;;;;;;;5.13;3.63;;;;;;;;;;5078708;28;20479;-63
2023/07/23 08:21:34;;;;;;;6.17;3.63;;;;;;;;;;5079831;28;20497;-62
2023/07/23 08:24:01;;;;;;;4.37;3.70;;;;;;;;;;5079749;28;20464;-62
2023/07/23 08:26:28;;;;;;;8.83;4.20;;;;;;;;;;5080129;28;20837;-62
2023/07/23 08:28:55;;;;;;;3.67;3.03;;;;;;;;;;5078788;28;20517;-62
2023/07/23 08:31:23;;;;;;;4.73;3.50;;;;;;;;;;5080124;28;20451;-62
2023/07/23 08:33:50;;;;;;;4.63;3.40;;;;;;;;;;5078801;28;20533;-62
2023/07/23 08:36:17;;;;;;;5.57;3.73;;;;;;;;;;5079090;28;20555;-62
2023/07/23 08:38:43;;;;;;;4.83;3.77;;;;;;;;;;5082290;28;20452;-62
2023/07/23 08:41:16;;;;;;;5.00;4.10;;;;;;;;;;5083949;28;20507;-62
2023/07/23 08:44:01;;;;;;;4.80;3.67;;;;;;;;;;5081125;28;20535;-62
2023/07/23 08:46:29;;;;;;;5.50;4.70;;;;;;;;;;5078614;28;20472;-62
2023/07/23 08:49:02;;;;;;;4.93;3.73;;;;;;;;;;5082508;28;20480;-62
2023/07/23 08:51:32;;;;;;;5.30;3.90;;;;;;;;;;5083145;28;20439;-63
2023/07/23 08:53:59;;;;;;;4.43;4.03;;;;;;;;;;5083050;28;20521;-62
2023/07/23 08:56:25;;;;;;;5.70;4.00;;;;;;;;;;5083473;28;20447;-62
2023/07/23 08:58:53;;;;;;;4.40;3.40;;;;;;;;;;5082591;28;20456;-63
2023/07/23 09:01:19;;;;;;;5.27;3.70;;;;;;;;;;5083459;28;20471;-62
2023/07/23 09:03:47;;;;;;;6.70;3.77;;;;;;;;;;5082161;28;20459;-62
2023/07/23 09:06:14;;;;;;;4.30;3.40;;;;;;;;;;5081712;28;20452;-63
2023/07/23 09:08:40;;;;;;;5.73;3.33;;;;;;;;;;5082878;28;20460;-63
2023/07/23 09:11:10;;;;;;;5.17;4.03;;;;;;;;;;5076040;28;20512;-62
2023/07/23 09:13:37;;;;;;;3.40;3.03;;;;;;;;;;5081167;28;20511;-62
2023/07/23 09:16:04;;;;;;;3.93;3.33;;;;;;;;;;5082308;28;20447;-62
2023/07/23 09:18:31;;;;;;;4.83;3.23;;;;;;;;;;5081757;28;20484;-62
2023/07/23 09:20:59;;;;;;;4.03;3.00;;;;;;;;;;5082258;28;20472;-63
2023/07/23 09:23:26;;;;;;;3.93;3.37;;;;;;;;;;5082686;28;20452;-62
2023/07/23 09:25:52;;;;;;;4.40;3.50;;;;;;;;;;5082902;28;20509;-63
2023/07/23 09:28:21;;;;;;;4.40;3.80;;;;;;;;;;5081945;28;20490;-62
2023/07/23 09:30:47;;;;;;;5.37;4.20;;;;;;;;;;5083044;28;20470;-62
2023/07/23 09:33:14;;;;;;;5.23;4.00;;;;;;;;;;5081668;28;20952;-62
2023/07/23 09:35:41;;;;;;;4.50;4.00;;;;;;;;;;5081808;28;20490;-62
2023/07/23 09:38:11;;;;;;;4.43;4.03;;;;;;;;;;5082194;28;20487;-63
2023/07/23 09:40:39;;;;;;;3.70;3.40;;;;;;;;;;5082448;28;20979;-62
2023/07/23 09:43:06;;;;;;;6.53;3.33;;;;;;;;;;5081412;28;20472;-62
2023/07/23 09:45:35;;;;;;;4.30;3.23;;;;;;;;;;5082686;28;20455;-62
2023/07/23 09:48:02;;;;;;;5.57;3.80;;;;;;;;;;5081933;28;20543;-62
2023/07/23 09:50:28;;;;;;;5.57;3.20;;;;;;;;;;5080776;28;20480;-62
2023/07/23 09:52:55;;;;;;;3.10;2.80;;;;;;;;;;5082228;28;20540;-62
2023/07/23 09:55:23;;;;;;;4.40;2.80;;;;;;;;;;5081999;28;20502;-62
2023/07/23 09:57:50;;;;;;;7.20;3.40;;;;;;;;;;5081466;28;20523;-62
2023/07/23 10:00:16;;;;;;;4.70;3.33;;;;;;;;;;5082340;28;20440;-62
2023/07/23 10:02:43;;;;;;;3.50;2.97;;;;;;;;;;5081306;28;20528;-65
2023/07/23 10:05:12;;;;;;;3.43;3.13;;;;;;;;;;5080991;28;20606;-62
2023/07/23 10:07:40;;;;;;;4.13;3.67;;;;;;;;;;5081202;28;20464;-62
2023/07/23 10:10:07;;;;;;;5.07;3.50;;;;;;;;;;5081804;28;20452;-62
2023/07/23 10:12:34;;;;;;;4.70;4.20;;;;;;;;;;5081127;28;20510;-62
2023/07/23 10:15:01;;;;;;;5.93;3.63;;;;;;;;;;5081663;28;20490;-61
2023/07/23 10:17:29;;;;;;;4.93;3.60;;;;;;;;;;5081998;28;20456;-62
2023/07/23 10:19:55;;;;;;;3.27;2.97;;;;;;;;;;5080176;28;20527;-62
2023/07/23 10:22:22;;;;;;;4.63;3.20;;;;;;;;;;5081227;28;20480;-62
2023/07/23 10:24:51;;;;;;;4.57;3.10;;;;;;;;;;5081549;28;20879;-61
2023/07/23 10:27:17;;;;;;;3.87;3.20;;;;;;;;;;5080747;28;20464;-62
2023/07/23 10:29:58;;;;;;;3.90;2.73;;;;;;;;;;5081078;28;20484;-62
2023/07/23 10:32:27;;;;;;;4.00;3.60;;;;;;;;;;5070496;28;20516;-63
2023/07/23 10:34:54;;;;;;;4.93;3.30;;;;;;;;;;5080630;28;20455;-62
2023/07/23 10:37:21;;;;;;;4.60;3.20;;;;;;;;;;5080463;28;20479;-62
2023/07/23 10:39:48;;;;;;;4.50;2.73;;;;;;;;;;5081157;28;20482;-62
2023/07/23 10:42:36;;;;;;;3.93;3.53;;;;;;;;;;5080413;28;20460;-62
2023/07/23 10:45:23;;;;;;;3.17;2.70;;;;;;;;;;5081463;28;20467;-62
2023/07/23 10:47:51;;;;;;;3.60;3.10;;;;;;;;;;5080368;28;20511;-62
2023/07/23 10:50:19;;;;;;;3.30;2.60;;;;;;;;;;5080517;28;20923;-62
2023/07/23 10:52:45;;;;;;;6.50;2.57;;;;;;;;;;5081065;28;20865;-63
2023/07/23 10:55:12;;;;;;;2.87;2.20;;;;;;;;;;5081265;28;20512;-62
2023/07/23 10:57:39;;;;;;;2.57;2.37;;;;;;;;;;5079841;28;20952;-62
2023/07/23 11:00:18;;;;;;;3.73;2.60;;;;;;;;;;5077843;28;20463;-62
2023/07/23 11:02:46;;;;;;;2.10;1.83;;;;;;;;;;5076602;28;20444;-62
2023/07/23 11:05:14;;;;;;;4.40;2.70;;;;;;;;;;5079967;28;20475;-61
2023/07/23 11:07:41;;;;;;;2.40;2.20;;;;;;;;;;5079892;28;20451;-62
2023/07/23 11:10:20;;;;;;;4.10;2.33;;;;;;;;;;5080956;28;20448;-62
2023/07/23 11:12:47;;;;;;;3.70;2.47;;;;;;;;;;5071725;28;20447;-62
2023/07/23 11:15:15;;;;;;;4.37;2.50;;;;;;;;;;5080477;28;20557;-62
2023/07/23 11:17:41;;;;;;;2.83;2.33;;;;;;;;;;5080138;28;20513;-62
2023/07/23 11:20:08;;;;;;;3.73;2.73;;;;;;;;;;5079254;28;20488;-62
2023/07/23 11:22:41;;;;;;;4.07;2.63;;;;;;;;;;5078480;28;20515;-62
2023/07/23 11:25:14;;;;;;;2.80;2.30;;;;;;;;;;5080032;28;20539;-62
2023/07/23 11:27:41;;;;;;;2.70;2.43;;;;;;;;;;5079079;28;21027;-62
2023/07/23 11:30:08;;;;;;;4.43;2.60;;;;;;;;;;5079531;28;20829;-62
2023/07/23 11:32:34;;;;;;;5.70;2.57;;;;;;;;;;5079308;28;20483;-62
2023/07/23 11:35:01;;;;;;;3.63;2.40;;;;;;;;;;5079432;28;20753;-62
2023/07/23 11:37:27;;;;;;;2.70;2.20;;;;;;;;;;5078709;28;20572;-62
2023/07/23 11:39:55;;;;;;;4.00;2.40;;;;;;;;;;5079806;28;20484;-62
2023/07/23 11:42:21;;;;;;;4.47;2.43;;;;;;;;;;5078713;28;20452;-62
2023/07/23 11:44:59;;;;;;;2.97;2.57;;;;;;;;;;5069282;28;20475;-63
2023/07/23 11:47:27;;;;;;;3.23;2.20;;;;;;;;;;5079382;28;20451;-62
2023/07/23 11:49:53;;;;;;;4.20;2.60;;;;;;;;;;5078756;28;20485;-61
2023/07/23 11:52:22;;;;;;;3.50;2.13;;;;;;;;;;5080075;28;20471;-61
2023/07/23 11:54:49;;;;;;;4.23;2.33;;;;;;;;;;5080021;28;20514;-61
2023/07/23 11:57:16;;;;;;;4.00;2.30;;;;;;;;;;5078779;28;20506;-62
2023/07/23 11:59:43;;;;;;;3.30;2.00;;;;;;;;;;5080003;28;20499;-62
2023/07/23 12:02:09;;;;;;;5.93;2.57;;;;;;;;;;5076943;28;20523;-62
2023/07/23 12:04:37;;;;;;;9.23;2.50;;;;;;;;;;5078286;28;20456;-62
2023/07/23 12:07:05;;;;;;;4.93;3.10;;;;;;;;;;5079039;28;20444;-62
2023/07/23 12:09:34;;;;;;;3.57;2.20;;;;;;;;;;5079325;28;20460;-62
2023/07/23 12:12:00;;;;;;;4.40;2.00;;;;;;;;;;5079559;28;20470;-62
2023/07/23 12:14:28;;;;;;;4.83;2.10;;;;;;;;;;5083969;28;20483;-62
2023/07/23 12:16:56;;;;;;;5.20;2.60;;;;;;;;;;5084601;28;20444;-63
2023/07/23 12:19:23;;;;;;;2.57;1.97;;;;;;;;;;5081869;28;21078;-62
2023/07/23 12:21:52;;;;;;;3.50;2.20;;;;;;;;;;5083693;28;20503;-62
2023/07/23 12:24:19;;;;;;;3.10;1.83;;;;;;;;;;5083479;28;20502;-62
2023/07/23 12:26:46;;;;;;;3.10;2.33;;;;;;;;;;5083337;28;20439;-62
2023/07/23 12:29:13;;;;;;;3.10;2.10;;;;;;;;;;5083677;28;20455;-62
2023/07/23 12:31:42;;;;;;;3.03;2.23;;;;;;;;;;5083978;28;20598;-63
2023/07/23 12:34:09;;;;;;;2.27;2.07;;;;;;;;;;5082459;28;20526;-62
2023/07/23 12:36:35;;;;;;;4.40;2.07;;;;;;;;;;5083077;28;20483;-62
2023/07/23 12:39:02;;;;;;;2.40;2.20;;;;;;;;;;5083233;28;20473;-62
2023/07/23 12:41:29;;;;;;;2.93;1.80;;;;;;;;;;5082895;28;20443;-62
2023/07/23 12:43:55;;;;;;;3.63;2.40;;;;;;;;;;5079398;28;20448;-62
2023/07/23 12:46:22;;;;;;;2.97;2.67;;;;;;;;;;5079105;28;20515;-62
2023/07/23 12:48:49;;;;;;;4.70;2.67;;;;;;;;;;5081662;28;20455;-62
2023/07/23 12:51:16;;;;;;;3.40;3.10;;;;;;;;;;5083672;28;20444;-62
2023/07/23 12:53:42;;;;;;;3.33;3.03;;;;;;;;;;5074169;28;20499;-62
2023/07/23 12:56:09;;;;;;;6.53;3.33;;;;;;;;;;5082886;28;20483;-62
2023/07/23 12:58:35;;;;;;;3.50;2.97;;;;;;;;;;5082701;28;20587;-62
2023/07/23 13:01:01;;;;;;;4.20;2.37;;;;;;;;;;5081377;28;20456;-62
2023/07/23 13:03:29;;;;;;;3.93;2.30;;;;;;;;;;5081629;28;20472;-62
2023/07/23 13:05:57;;;;;;;6.50;3.10;;;;;;;;;;5082770;28;20466;-62
2023/07/23 13:08:23;;;;;;;4.23;2.57;;;;;;;;;;5082960;28;20515;-62
2023/07/23 13:10:50;;;;;;;3.17;2.87;;;;;;;;;;5082356;28;20519;-63
2023/07/23 13:13:16;;;;;;;3.67;3.30;;;;;;;;;;5083087;28;20728;-62
2023/07/23 13:15:42;;;;;;;3.03;2.60;;;;;;;;;;5082996;28;20475;-62
2023/07/23 13:18:09;;;;;;;3.33;3.03;;;;;;;;;;5081404;28;20542;-62
2023/07/23 13:20:35;;;;;;;3.40;2.90;;;;;;;;;;5082502;28;20484;-62
2023/07/23 13:23:05;;;;;;;3.83;2.90;;;;;;;;;;5082655;28;20443;-62
2023/07/23 13:25:31;;;;;;;4.10;2.60;;;;;;;;;;5080520;28;20452;-62
2023/07/23 13:27:58;;;;;;;3.93;3.40;;;;;;;;;;5082992;28;20491;-62
2023/07/23 13:30:24;;;;;;;4.07;2.90;;;;;;;;;;5078955;28;20519;-62
2023/07/23 13:32:51;;;;;;;3.20;2.90;;;;;;;;;;5081584;28;20534;-62
2023/07/23 13:35:17;;;;;;;2.80;2.50;;;;;;;;;;5082706;28;20963;-62
2023/07/23 13:37:44;;;;;;;2.70;2.37;;;;;;;;;;5081717;28;20504;-62
2023/07/23 13:40:12;;;;;;;4.20;3.03;;;;;;;;;;5081922;28;20456;-62
2023/07/23 13:42:38;;;;;;;2.93;2.60;;;;;;;;;;5082448;28;20474;-62
2023/07/23 13:45:05;;;;;;;3.20;2.20;;;;;;;;;;5082552;28;20475;-62
2023/07/23 13:47:32;;;;;;;3.50;1.97;;;;;;;;;;5081711;28;20440;-62
2023/07/23 13:49:59;;;;;;;2.30;2.10;;;;;;;;;;5081784;28;20464;-62
2023/07/23 13:52:25;;;;;;;2.73;2.43;;;;;;;;;;5082341;28;20500;-62
2023/07/23 13:54:52;;;;;;;3.03;2.40;;;;;;;;;;5081499;28;20634;-62
2023/07/23 13:57:19;;;;;;;3.70;2.40;;;;;;;;;;5081873;28;20701;-62
2023/07/23 13:59:46;;;;;;;4.20;2.57;;;;;;;;;;5076263;28;20529;-62
2023/07/23 14:02:12;;;;;;;3.37;2.20;;;;;;;;;;5081114;28;20444;-62
2023/07/23 14:04:38;;;;;;;4.93;2.40;;;;;;;;;;5081268;28;20451;-62
2023/07/23 14:07:05;;;;;;;9.90;3.00;;;;;;;;;;5081018;28;20475;-62
2023/07/23 14:09:31;;;;;;;4.27;2.60;;;;;;;;;;5081107;28;20460;-62
2023/07/23 14:11:58;;;;;;;4.03;2.60;;;;;;;;;;5082200;28;20471;-62
2023/07/23 14:14:25;;;;;;;3.03;2.80;;;;;;;;;;5081726;28;20487;-62
2023/07/23 14:16:52;;;;;;;2.80;2.60;;;;;;;;;;5081133;28;20478;-62
2023/07/23 14:19:18;;;;;;;2.37;2.17;;;;;;;;;;5080507;28;20484;-62
2023/07/23 14:21:45;;;;;;;3.00;2.70;;;;;;;;;;5076793;28;20445;-62
2023/07/23 14:24:11;;;;;;;3.57;3.27;;;;;;;;;;5080584;28;20475;-62
2023/07/23 14:26:38;;;;;;;3.57;2.50;;;;;;;;;;5082163;28;20510;-62
2023/07/23 14:29:05;;;;;;;3.80;2.97;;;;;;;;;;5081024;28;20960;-62
2023/07/23 14:31:33;;;;;;;3.20;2.37;;;;;;;;;;5081283;28;20448;-62
2023/07/23 14:33:59;;;;;;;2.67;2.47;;;;;;;;;;5080317;28;20530;-62
2023/07/23 14:36:27;;;;;;;2.73;2.53;;;;;;;;;;5080878;28;20475;-62
2023/07/23 14:38:53;;;;;;;3.77;2.70;;;;;;;;;;5080631;28;20463;-62
2023/07/23 14:41:20;;;;;;;3.13;2.90;;;;;;;;;;5081264;28;20505;-62